Time;durP1;ratioP1;P1;durP2;ratioP2;P2;SDS_P1;SDS_P2;PMS_P1;PMS_P2;Temp;Humidity;BMP_temperature;BMP_pressure;BME280_temperature;BME280_humidity;BME280_pressure;Samples;Min_cycle;Max_cycle;Signal;HPM_P1;HPM_P2
2022/05/03 00:00:18;;;;;;;1.10;0.52;;;7.90;99.90;;;;;;5036103;28;20042;-76
2022/05/03 00:03:11;;;;;;;1.10;0.40;;;7.90;99.90;;;;;;4980105;28;20084;-76
2022/05/03 00:06:01;;;;;;;1.25;0.30;;;7.80;99.90;;;;;;4994015;28;20467;-76
2022/05/03 00:08:30;;;;;;;;;;;7.80;99.90;;;;;;4978949;28;20057;-75
2022/05/03 00:11:14;;;;;;;0.70;0.30;;;7.70;99.90;;;;;;4992427;28;19949;-76
2022/05/03 00:13:48;;;;;;;1.08;0.40;;;7.70;99.90;;;;;;4992892;28;20050;-76
2022/05/03 00:16:17;;;;;;;2.47;0.50;;;7.60;99.90;;;;;;4992923;28;20454;-76
2022/05/03 00:18:42;;;;;;;1.52;0.50;;;7.50;99.90;;;;;;4979983;28;20026;-76
2022/05/03 00:21:12;;;;;;;1.75;0.40;;;7.50;99.90;;;;;;5000019;28;20053;-76
2022/05/03 00:23:38;;;;;;;1.45;0.40;;;7.50;99.90;;;;;;4981394;28;20034;-76
2022/05/03 00:26:05;;;;;;;1.70;0.45;;;7.50;99.90;;;;;;4996754;28;20044;-76
2022/05/03 00:28:31;;;;;;;1.35;0.50;;;7.40;99.90;;;;;;4983423;28;20120;-76
2022/05/03 00:30:58;;;;;;;0.95;0.40;;;7.40;99.90;;;;;;4981828;28;21723;-76
2022/05/03 00:33:24;;;;;;;1.23;0.50;;;7.40;99.90;;;;;;5005868;28;20049;-76
2022/05/03 00:35:50;;;;;;;1.17;0.50;;;7.30;99.90;;;;;;5038793;28;20033;-76
2022/05/03 00:38:16;;;;;;;1.20;0.50;;;7.20;99.90;;;;;;5022058;28;20484;-76
2022/05/03 00:40:54;;;;;;;1.40;0.60;;;7.10;99.90;;;;;;5039126;28;20029;-76
2022/05/03 00:43:35;;;;;;;2.42;0.57;;;7.10;99.90;;;;;;5039811;28;20323;-76
2022/05/03 00:46:05;;;;;;;1.40;0.50;;;7.00;99.90;;;;;;5039167;28;20028;-76
2022/05/03 00:49:12;;;;;;;2.90;0.57;;;7.00;99.90;;;;;;5039056;28;20024;-76
2022/05/03 00:51:56;;;;;;;2.38;1.00;;;7.00;99.90;;;;;;5039742;28;20044;-76
2022/05/03 00:54:43;;;;;;;1.95;1.02;;;7.00;99.90;;;;;;5040462;28;20457;-75
2022/05/03 00:57:39;;;;;;;1.83;0.65;;;6.90;99.90;;;;;;5039911;28;20560;-76
2022/05/03 01:00:07;;;;;;;2.63;0.65;;;6.90;99.90;;;;;;5039334;28;20041;-76
2022/05/03 01:02:57;;;;;;;1.60;0.60;;;6.90;99.90;;;;;;5037934;28;20029;-76
2022/05/03 01:05:28;;;;;;;2.17;0.50;;;7.00;99.90;;;;;;5040241;28;20056;-75
2022/05/03 01:08:00;;;;;;;1.48;0.40;;;6.90;99.90;;;;;;5053478;28;20374;-75
2022/05/03 01:10:30;;;;;;;1.15;0.40;;;6.90;99.90;;;;;;5038803;28;20045;-75
2022/05/03 01:13:00;;;;;;;1.02;0.40;;;6.80;99.90;;;;;;5022587;28;20409;-75
2022/05/03 01:15:32;;;;;;;1.30;0.50;;;6.80;99.90;;;;;;5038446;28;20457;-75
2022/05/03 01:18:11;;;;;;;1.27;0.40;;;6.80;99.90;;;;;;5053322;28;20036;-75
2022/05/03 01:20:47;;;;;;;1.37;0.50;;;6.80;99.90;;;;;;5012788;28;20381;-75
2022/05/03 01:23:26;;;;;;;1.13;0.40;;;6.80;99.90;;;;;;5039531;28;20299;-75
2022/05/03 01:26:08;;;;;;;1.67;0.55;;;6.70;99.90;;;;;;5053561;28;20116;-75
2022/05/03 01:29:22;;;;;;;1.33;0.40;;;6.70;99.90;;;;;;5038389;28;20409;-75
2022/05/03 01:31:53;;;;;;;1.38;0.60;;;6.70;99.90;;;;;;5020340;28;20045;-75
2022/05/03 01:34:23;;;;;;;1.80;0.60;;;6.60;99.90;;;;;;5033342;28;20039;-75
2022/05/03 01:37:17;;;;;;;2.55;0.80;;;6.60;99.90;;;;;;5008608;28;20033;-75
2022/05/03 01:40:01;;;;;;;2.78;0.60;;;6.50;99.90;;;;;;4982021;28;20049;-75
2022/05/03 01:42:58;;;;;;;2.72;0.65;;;6.50;99.90;;;;;;4979905;28;20037;-75
2022/05/03 01:45:41;;;;;;;2.05;0.60;;;6.50;99.90;;;;;;4981957;28;20434;-75
2022/05/03 01:48:25;;;;;;;1.30;0.50;;;6.40;99.90;;;;;;4981157;28;20421;-75
2022/05/03 01:51:22;;;;;;;2.03;0.70;;;6.40;99.90;;;;;;4965022;28;20042;-74
2022/05/03 01:53:56;;;;;;;4.05;0.70;;;6.40;99.90;;;;;;4981246;28;20042;-75
2022/05/03 01:56:49;;;;;;;2.88;1.15;;;6.40;99.90;;;;;;4981826;28;20706;-75
2022/05/03 01:59:54;;;;;;;1.95;0.70;;;6.40;99.90;;;;;;4995879;28;20057;-75
2022/05/03 02:02:58;;;;;;;2.15;0.70;;;6.30;99.90;;;;;;4966250;28;20038;-75
2022/05/03 02:05:35;;;;;;;3.03;0.60;;;6.30;99.90;;;;;;4995614;28;20073;-75
2022/05/03 02:08:01;;;;;;;1.77;0.70;;;6.30;99.90;;;;;;4981445;28;20042;-75
2022/05/03 02:10:45;;;;;;;1.45;0.55;;;6.20;99.90;;;;;;4995477;28;20718;-75
2022/05/03 02:16:54;;;;;;;3.53;1.00;;;6.20;99.90;;;;;;5012494;28;20405;-75
2022/05/03 02:19:57;;;;;;;2.92;0.93;;;6.20;99.90;;;;;;5037563;28;20124;-75
2022/05/03 02:22:35;;;;;;;2.63;1.30;;;6.20;99.90;;;;;;5055111;28;20120;-75
2022/05/03 02:25:19;;;;;;;3.83;1.58;;;6.20;99.90;;;;;;5014290;28;20278;-75
2022/05/03 02:28:03;;;;;;;2.50;0.90;;;6.10;99.90;;;;;;5036133;28;20374;-75
2022/05/03 02:30:32;;;;;;;2.38;1.00;;;6.10;99.90;;;;;;5036235;28;20095;-75
2022/05/03 02:33:05;;;;;;;2.85;1.33;;;6.20;99.90;;;;;;5035254;28;20052;-75
2022/05/03 02:35:35;;;;;;;2.13;1.05;;;6.10;99.90;;;;;;5037442;28;20362;-74
2022/05/03 02:38:05;;;;;;;2.58;0.80;;;6.10;99.90;;;;;;5035681;28;20033;-75
2022/05/03 02:40:32;;;;;;;1.70;0.60;;;6.10;99.90;;;;;;5036948;28;20037;-76
2022/05/03 02:42:58;;;;;;;1.80;0.80;;;6.00;99.90;;;;;;5014111;28;20028;-75
2022/05/03 02:45:25;;;;;;;2.20;0.73;;;6.00;99.90;;;;;;5037355;28;20036;-75
2022/05/03 02:48:01;;;;;;;2.22;0.70;;;5.90;99.90;;;;;;5035291;28;20041;-75
2022/05/03 02:50:44;;;;;;;2.53;0.70;;;5.90;99.90;;;;;;5036642;28;20052;-75
2022/05/03 02:53:42;;;;;;;1.65;0.60;;;5.80;99.90;;;;;;5030699;28;20037;-75
2022/05/03 02:56:24;;;;;;;1.67;0.65;;;5.80;99.90;;;;;;5034928;28;20045;-75
2022/05/03 03:01:47;;;;;;;1.80;0.60;;;5.90;99.90;;;;;;5035865;28;20068;-75
2022/05/03 03:02:36;;;;;;;1.55;0.60;;;5.90;99.90;;;;;;5035362;28;20491;-75
2022/05/03 03:05:09;;;;;;;1.60;0.63;;;5.80;99.90;;;;;;5036202;28;20039;-75
2022/05/03 03:07:58;;;;;;;2.58;0.80;;;5.80;99.90;;;;;;5037334;28;20029;-75
2022/05/03 03:10:32;;;;;;;2.15;0.80;;;5.70;99.90;;;;;;5037123;28;20496;-75
2022/05/03 03:13:17;;;;;;;1.83;0.65;;;5.70;99.90;;;;;;5018927;28;20088;-75
2022/05/03 03:15:43;;;;;;;3.20;0.90;;;5.70;99.90;;;;;;5037440;28;21941;-75
2022/05/03 03:18:13;;;;;;;2.17;1.02;;;5.80;99.90;;;;;;5035866;28;20677;-75
2022/05/03 03:20:44;;;;;;;2.20;0.60;;;5.70;99.90;;;;;;5035513;28;20044;-75
2022/05/03 03:23:18;;;;;;;1.95;0.70;;;5.60;99.90;;;;;;5044033;28;20561;-75
2022/05/03 03:25:47;;;;;;;3.17;0.80;;;5.60;99.90;;;;;;5036148;28;21818;-75
2022/05/03 03:28:16;;;;;;;1.90;0.60;;;5.60;99.90;;;;;;5021075;28;20696;-75
2022/05/03 03:30:44;;;;;;;2.50;0.90;;;5.60;99.90;;;;;;5020528;28;20358;-75
2022/05/03 03:33:12;;;;;;;1.70;0.80;;;5.50;99.90;;;;;;5037370;28;20307;-75
2022/05/03 03:35:38;;;;;;;2.05;1.00;;;5.50;99.90;;;;;;5021731;28;20021;-75
2022/05/03 03:38:05;;;;;;;2.33;0.95;;;5.40;99.90;;;;;;5053894;28;20075;-75
2022/05/03 03:40:31;;;;;;;2.65;1.02;;;5.40;99.90;;;;;;5050777;28;20052;-75
2022/05/03 03:42:57;;;;;;;1.90;0.80;;;5.30;99.90;;;;;;5036218;28;20468;-75
2022/05/03 03:45:23;;;;;;;2.65;0.93;;;5.40;99.90;;;;;;5036623;28;20480;-75
2022/05/03 03:47:49;;;;;;;3.97;1.02;;;5.30;99.90;;;;;;5036985;28;20032;-75
2022/05/03 03:50:15;;;;;;;2.30;0.93;;;5.30;99.90;;;;;;5036872;28;20024;-74
2022/05/03 03:52:46;;;;;;;2.00;0.82;;;5.20;99.90;;;;;;5036202;28;20405;-75
2022/05/03 03:55:13;;;;;;;2.58;0.90;;;5.20;99.90;;;;;;5046217;28;20053;-75
2022/05/03 03:57:40;;;;;;;3.05;0.75;;;5.20;99.90;;;;;;5040393;28;20469;-75
2022/05/03 04:00:11;;;;;;;2.95;1.35;;;5.20;99.90;;;;;;5039922;28;20053;-75
2022/05/03 04:02:41;;;;;;;3.47;0.93;;;5.20;99.90;;;;;;5041103;28;20033;-75
2022/05/03 04:05:14;;;;;;;2.70;1.00;;;5.20;99.90;;;;;;5041949;28;20353;-75
2022/05/03 04:07:40;;;;;;;2.47;1.00;;;5.10;99.90;;;;;;5021452;28;20055;-75
2022/05/03 04:10:06;;;;;;;2.28;0.80;;;5.00;99.90;;;;;;5034369;28;20024;-75
2022/05/03 04:12:32;;;;;;;1.85;0.75;;;5.10;99.90;;;;;;5039278;28;20047;-75
2022/05/03 04:14:58;;;;;;;3.75;1.15;;;5.10;99.90;;;;;;5045973;28;20522;-75
2022/05/03 04:17:23;;;;;;;2.90;1.50;;;5.00;99.90;;;;;;5047211;28;20104;-75
2022/05/03 04:19:49;;;;;;;2.17;0.98;;;5.00;99.90;;;;;;5021580;28;20037;-75
2022/05/03 04:22:25;;;;;;;3.70;1.20;;;5.00;99.90;;;;;;5039753;28;20025;-75
2022/05/03 04:24:52;;;;;;;2.08;0.82;;;5.10;99.90;;;;;;5038751;28;20180;-75
2022/05/03 04:27:19;;;;;;;2.70;1.15;;;5.10;99.90;;;;;;5038406;28;20068;-75
2022/05/03 04:29:44;;;;;;;2.70;0.90;;;5.10;99.90;;;;;;5039677;28;20400;-75
2022/05/03 04:32:10;;;;;;;3.08;0.98;;;5.10;99.90;;;;;;5017592;28;20041;-75
2022/05/03 04:34:36;;;;;;;2.88;1.48;;;5.20;99.90;;;;;;5002122;28;20378;-75
2022/05/03 04:37:01;;;;;;;2.65;1.20;;;5.20;99.90;;;;;;5033706;28;20056;-75
2022/05/03 04:39:27;;;;;;;2.92;0.90;;;5.30;99.90;;;;;;5038379;28;20500;-75
2022/05/03 04:41:53;;;;;;;2.35;0.90;;;5.40;99.90;;;;;;5023091;28;20033;-75
2022/05/03 04:44:18;;;;;;;4.22;1.20;;;5.30;99.90;;;;;;5022033;28;20067;-75
2022/05/03 04:46:44;;;;;;;2.33;1.10;;;5.30;99.90;;;;;;5039330;28;20051;-75
2022/05/03 04:49:09;;;;;;;3.35;1.30;;;5.40;99.90;;;;;;5037630;28;20033;-75
2022/05/03 04:51:35;;;;;;;4.43;1.48;;;5.50;99.90;;;;;;5037553;28;20021;-75
2022/05/03 04:54:01;;;;;;;3.25;1.98;;;5.60;99.90;;;;;;5020077;28;20327;-75
2022/05/03 04:56:26;;;;;;;6.07;2.33;;;5.60;99.90;;;;;;5039104;28;20268;-75
2022/05/03 04:58:56;;;;;;;5.15;1.52;;;5.60;99.90;;;;;;5036744;28;20740;-75
2022/05/03 05:01:22;;;;;;;3.42;1.83;;;5.70;99.90;;;;;;5021284;28;20025;-75
2022/05/03 05:03:48;;;;;;;5.07;1.33;;;5.80;99.90;;;;;;5038005;28;20036;-75
2022/05/03 05:06:14;;;;;;;3.47;1.75;;;5.80;99.90;;;;;;5053569;28;20043;-76
2022/05/03 05:08:41;;;;;;;3.40;1.25;;;5.80;99.90;;;;;;5045327;28;20071;-75
2022/05/03 05:11:07;;;;;;;2.90;1.17;;;5.90;99.90;;;;;;5033211;28;20029;-75
2022/05/03 05:13:34;;;;;;;5.65;2.33;;;6.00;99.90;;;;;;5016207;28;20041;-75
2022/05/03 05:15:59;;;;;;;4.82;2.63;;;6.10;99.90;;;;;;5022102;28;20846;-75
2022/05/03 05:18:27;;;;;;;6.22;2.92;;;6.20;99.90;;;;;;5037257;28;20132;-75
2022/05/03 05:20:53;;;;;;;5.28;3.40;;;6.30;99.90;;;;;;5016092;28;20339;-76
2022/05/03 05:23:19;;;;;;;6.25;3.95;;;6.30;99.90;;;;;;5030752;28;20047;-75
2022/05/03 05:25:46;;;;;;;9.05;4.68;;;6.40;99.90;;;;;;5037217;28;20025;-75
2022/05/03 05:28:13;;;;;;;8.13;4.55;;;6.50;99.90;;;;;;5038867;28;20151;-76
2022/05/03 05:30:40;;;;;;;6.13;3.25;;;6.50;99.90;;;;;;5038607;28;20040;-76
2022/05/03 05:33:05;;;;;;;6.43;4.38;;;6.60;99.90;;;;;;5036769;28;20155;-76
2022/05/03 05:35:31;;;;;;;5.90;3.95;;;6.70;99.90;;;;;;5037705;28;20037;-76
2022/05/03 05:37:56;;;;;;;4.80;2.75;;;6.70;99.90;;;;;;5054643;28;20132;-75
2022/05/03 05:40:22;;;;;;;5.38;3.58;;;6.80;99.90;;;;;;5036535;28;20033;-75
2022/05/03 05:42:49;;;;;;;5.38;2.85;;;6.90;99.90;;;;;;5029339;28;20266;-76
2022/05/03 05:45:16;;;;;;;7.10;3.00;;;7.00;99.90;;;;;;5037897;28;20032;-76
2022/05/03 05:47:42;;;;;;;5.45;3.33;;;7.10;99.90;;;;;;5004504;28;20067;-76
2022/05/03 05:50:09;;;;;;;4.43;3.05;;;7.10;99.90;;;;;;5037978;28;20033;-76
2022/05/03 05:55:19;;;;;;;4.03;2.65;;;7.30;99.90;;;;;;5053234;28;20055;-76
2022/05/03 05:57:44;;;;;;;4.50;2.45;;;7.30;99.90;;;;;;5038017;28;20033;-76
2022/05/03 06:00:11;;;;;;;7.03;4.07;;;7.60;99.90;;;;;;4990664;28;20100;-75
2022/05/03 06:02:40;;;;;;;5.23;3.43;;;7.70;99.90;;;;;;5031493;28;20034;-76
2022/05/03 06:05:06;;;;;;;6.05;3.90;;;7.90;99.90;;;;;;5010928;28;20513;-76
2022/05/03 06:07:32;;;;;;;6.22;4.00;;;8.10;99.90;;;;;;4998852;28;20470;-76
2022/05/03 06:09:58;;;;;;;6.53;4.38;;;8.30;99.90;;;;;;5013402;28;20029;-75
2022/05/03 06:12:25;;;;;;;5.18;2.85;;;8.50;99.90;;;;;;5010253;28;20045;-77
2022/05/03 06:14:52;;;;;;;6.57;2.67;;;8.70;99.90;;;;;;5004017;28;20033;-76
2022/05/03 06:17:18;;;;;;;4.53;2.30;;;8.80;99.90;;;;;;5008204;28;20040;-76
2022/05/03 06:19:44;;;;;;;3.05;1.42;;;9.00;99.90;;;;;;5011380;28;20034;-76
2022/05/03 06:22:10;;;;;;;3.05;1.33;;;9.30;99.90;;;;;;4999224;28;20026;-76
2022/05/03 06:24:36;;;;;;;2.72;1.30;;;9.50;99.90;;;;;;5009076;28;20692;-76
2022/05/03 06:27:02;;;;;;;3.05;1.50;;;9.60;99.90;;;;;;5010032;28;20041;-76
2022/05/03 06:29:27;;;;;;;3.95;1.65;;;9.90;99.90;;;;;;4997047;28;20038;-76
2022/05/03 06:31:53;;;;;;;3.42;2.35;;;10.10;99.90;;;;;;5011630;28;20033;-76
2022/05/03 06:34:18;;;;;;;5.22;2.28;;;10.10;99.90;;;;;;4994963;28;20158;-76
2022/05/03 06:36:45;;;;;;;3.90;1.90;;;10.30;99.90;;;;;;5011057;28;20032;-76
2022/05/03 06:39:11;;;;;;;2.83;2.05;;;10.50;99.90;;;;;;5010917;28;20500;-76
2022/05/03 06:41:37;;;;;;;2.78;2.10;;;10.70;99.90;;;;;;5011621;28;20025;-76
2022/05/03 06:44:02;;;;;;;3.03;1.52;;;11.10;99.90;;;;;;5010576;28;20050;-76
2022/05/03 06:46:28;;;;;;;2.53;1.73;;;11.30;99.90;;;;;;5011708;28;20033;-76
2022/05/03 06:48:54;;;;;;;2.38;1.13;;;11.50;99.90;;;;;;5012947;28;20068;-76
2022/05/03 06:51:21;;;;;;;3.38;1.20;;;11.70;99.90;;;;;;5010819;28;20033;-76
2022/05/03 06:53:47;;;;;;;1.95;0.90;;;11.80;99.90;;;;;;4992488;28;20935;-77
2022/05/03 06:56:13;;;;;;;2.05;0.82;;;12.10;99.90;;;;;;5011237;28;20100;-77
2022/05/03 06:58:39;;;;;;;2.22;0.93;;;12.10;99.90;;;;;;4981228;28;20045;-76
2022/05/03 07:01:13;;;;;;;1.85;1.00;;;12.10;99.90;;;;;;4967681;28;20156;-77
2022/05/03 07:03:40;;;;;;;1.65;0.50;;;12.40;99.90;;;;;;4974285;28;21544;-77
2022/05/03 07:06:05;;;;;;;2.70;0.70;;;12.40;99.90;;;;;;5013637;28;20033;-77
2022/05/03 07:08:32;;;;;;;1.80;0.82;;;12.50;99.90;;;;;;4982797;28;20386;-77
2022/05/03 07:10:57;;;;;;;3.45;1.23;;;12.00;99.90;;;;;;5014398;28;20473;-76
2022/05/03 07:13:24;;;;;;;4.13;1.02;;;11.80;99.90;;;;;;5015141;28;20052;-77
2022/05/03 07:15:55;;;;;;;2.17;0.90;;;12.00;99.90;;;;;;5014509;28;20485;-76
2022/05/03 07:23:51;;;;;;;3.05;1.10;;;12.60;99.90;;;;;;5011459;28;20048;-77
2022/05/03 07:26:17;;;;;;;2.55;0.82;;;12.30;99.90;;;;;;4996105;28;20043;-77
2022/05/03 07:28:43;;;;;;;1.65;0.75;;;12.30;99.90;;;;;;4996976;28;20051;-77
2022/05/03 07:31:09;;;;;;;2.30;0.70;;;12.80;99.90;;;;;;4996546;28;20025;-77
2022/05/03 07:33:35;;;;;;;1.70;0.85;;;12.90;99.90;;;;;;5012872;28;20041;-77
2022/05/03 07:36:03;;;;;;;1.40;0.60;;;13.10;99.90;;;;;;5009712;28;20022;-77
2022/05/03 07:38:29;;;;;;;1.55;0.70;;;13.60;99.90;;;;;;5025624;28;20033;-77
2022/05/03 07:40:56;;;;;;;1.70;0.60;;;13.70;99.90;;;;;;5011876;28;20033;-77
2022/05/03 07:43:22;;;;;;;1.70;0.68;;;13.50;99.90;;;;;;4995823;28;20219;-77
2022/05/03 07:45:48;;;;;;;1.80;0.70;;;13.70;99.90;;;;;;4995380;28;20409;-77
2022/05/03 07:48:13;;;;;;;1.77;0.75;;;14.00;99.90;;;;;;5006724;28;20030;-78
2022/05/03 07:50:39;;;;;;;1.33;0.50;;;14.00;99.90;;;;;;5011572;28;20029;-78
2022/05/03 07:53:05;;;;;;;2.22;0.70;;;14.20;99.90;;;;;;4995332;28;20047;-77
2022/05/03 07:55:30;;;;;;;1.95;0.70;;;14.00;99.90;;;;;;5009835;28;20104;-77
2022/05/03 07:57:56;;;;;;;3.17;0.70;;;14.50;99.90;;;;;;5013042;28;20116;-78
2022/05/03 08:00:21;;;;;;;3.00;0.60;;;14.70;99.90;;;;;;4953528;28;21378;-78
2022/05/03 08:02:47;;;;;;;1.17;0.50;;;14.80;99.90;;;;;;4987020;28;20136;-78
2022/05/03 08:05:13;;;;;;;2.10;1.00;;;15.10;99.90;;;;;;5011712;28;20478;-78
2022/05/03 08:07:38;;;;;;;4.43;1.20;;;14.40;99.90;;;;;;5010818;28;20040;-77
2022/05/03 08:10:04;;;;;;;3.22;1.70;;;14.20;99.90;;;;;;5012234;28;20072;-78
2022/05/03 08:12:30;;;;;;;3.30;1.88;;;13.80;99.90;;;;;;5012447;28;20061;-78
2022/05/03 08:14:56;;;;;;;4.38;1.80;;;13.90;99.90;;;;;;4991451;28;20034;-78
2022/05/03 08:17:27;;;;;;;3.85;1.50;;;13.90;99.90;;;;;;5012305;28;20025;-78
2022/05/03 08:19:53;;;;;;;1.60;0.70;;;14.30;99.90;;;;;;5011542;28;20073;-78
2022/05/03 08:22:18;;;;;;;3.08;1.10;;;15.00;99.90;;;;;;5013425;28;20132;-78
2022/05/03 08:24:44;;;;;;;1.92;0.85;;;15.30;99.90;;;;;;4996655;28;20021;-78
2022/05/03 08:27:10;;;;;;;2.42;1.30;;;15.60;99.90;;;;;;5013642;28;20477;-78
2022/05/03 08:29:35;;;;;;;4.05;1.70;;;15.50;99.90;;;;;;4993162;28;20120;-78
2022/05/03 08:32:02;;;;;;;4.68;2.33;;;15.10;99.90;;;;;;5012743;28;20034;-78
2022/05/03 08:34:28;;;;;;;4.90;1.88;;;14.50;99.90;;;;;;5013607;28;20033;-78
2022/05/03 08:42:24;;;;;;;2.95;1.77;;;15.30;99.90;;;;;;5015519;28;20049;-78
2022/05/03 08:44:49;;;;;;;2.50;1.60;;;15.50;99.90;;;;;;4995047;28;20476;-78
2022/05/03 08:47:19;;;;;;;4.35;2.80;;;15.00;99.90;;;;;;5016571;28;20120;-78
2022/05/03 08:50:08;;;;;;;2.03;1.13;;;15.10;99.90;;;;;;5014802;28;20037;-78
2022/05/03 08:52:54;;;;;;;2.10;1.00;;;15.50;99.90;;;;;;4997561;28;20046;-79
2022/05/03 08:55:21;;;;;;;2.00;1.15;;;16.00;99.90;;;;;;5010634;28;20068;-79
2022/05/03 08:57:47;;;;;;;2.97;1.30;;;15.90;99.90;;;;;;5013261;28;20071;-79
2022/05/03 09:00:14;;;;;;;2.88;0.90;;;15.90;99.90;;;;;;4964188;28;20675;-79
2022/05/03 09:02:46;;;;;;;3.42;2.72;;;16.10;99.90;;;;;;5000823;28;20072;-79
2022/05/03 09:05:12;;;;;;;5.50;3.38;;;15.50;99.90;;;;;;5011395;28;20036;-79
2022/05/03 09:07:44;;;;;;;3.97;2.00;;;15.10;99.90;;;;;;5014218;28;20057;-79
2022/05/03 09:10:16;;;;;;;4.10;1.98;;;15.60;99.90;;;;;;5014664;28;20155;-79
2022/05/03 09:12:44;;;;;;;3.95;1.23;;;15.80;99.90;;;;;;5030950;28;20037;-79
2022/05/03 09:15:11;;;;;;;2.75;1.10;;;16.40;99.90;;;;;;5014006;28;20435;-78
2022/05/03 09:17:42;;;;;;;5.70;2.88;;;16.60;99.90;;;;;;5014259;28;20438;-79
2022/05/03 09:23:46;;;;;;;5.60;3.45;;;15.60;99.90;;;;;;5013962;28;20040;-79
2022/05/03 09:25:47;;;;;;;2.95;1.40;;;16.50;99.90;;;;;;5014321;28;20057;-79
2022/05/03 09:28:13;;;;;;;2.03;0.80;;;16.50;99.90;;;;;;5016177;28;20104;-79
2022/05/03 09:30:50;;;;;;;5.90;2.92;;;16.60;99.90;;;;;;4998906;28;20029;-78
2022/05/03 09:33:18;;;;;;;4.80;2.90;;;16.20;99.90;;;;;;5017272;28;20037;-79
2022/05/03 09:35:44;;;;;;;4.53;2.60;;;15.90;99.90;;;;;;5029297;28;20033;-79
2022/05/03 09:38:10;;;;;;;3.38;1.42;;;16.10;99.90;;;;;;5015201;28;20029;-80
2022/05/03 09:40:41;;;;;;;1.60;0.65;;;16.40;99.90;;;;;;5033152;28;20026;-78
2022/05/03 09:43:07;;;;;;;5.78;3.80;;;17.30;99.90;;;;;;5033513;28;20246;-78
2022/05/03 09:45:32;;;;;;;5.93;4.95;;;17.10;99.90;;;;;;5016263;28;20033;-78
2022/05/03 09:47:59;;;;;;;6.32;4.55;;;16.30;99.90;;;;;;5014721;28;20545;-78
2022/05/03 09:50:43;;;;;;;5.85;4.78;;;15.70;99.90;;;;;;5015219;28;20040;-78
2022/05/03 09:53:18;;;;;;;5.88;3.60;;;15.60;99.90;;;;;;4993874;28;20137;-78
2022/05/03 09:55:46;;;;;;;5.85;5.10;;;16.00;99.90;;;;;;5014561;28;20054;-78
2022/05/03 09:58:13;;;;;;;5.57;4.03;;;16.60;99.90;;;;;;5014581;28;20124;-78
2022/05/03 10:00:41;;;;;;;4.53;3.63;;;16.70;99.90;;;;;;4971799;28;20131;-78
2022/05/03 10:03:09;;;;;;;5.45;3.53;;;16.50;99.90;;;;;;5010371;28;20076;-78
2022/05/03 10:05:37;;;;;;;5.40;3.75;;;16.50;99.90;;;;;;5014709;28;20061;-79
2022/05/03 10:08:04;;;;;;;4.65;2.85;;;17.00;99.90;;;;;;5015005;28;20249;-78
2022/05/03 10:10:30;;;;;;;7.47;4.30;;;17.50;99.90;;;;;;4999474;28;20098;-78
2022/05/03 10:12:56;;;;;;;8.32;6.35;;;17.00;99.90;;;;;;5014260;28;20045;-78
2022/05/03 10:21:12;;;;;;;8.95;7.03;;;16.50;99.90;;;;;;5010961;28;20033;-78
2022/05/03 10:23:37;;;;;;;4.82;3.45;;;16.30;99.90;;;;;;4993402;28;20036;-78
2022/05/03 10:26:05;;;;;;;3.97;2.80;;;17.20;99.90;;;;;;5013083;28;20042;-78
2022/05/03 10:29:08;;;;;;;2.65;1.95;;;17.60;99.90;;;;;;5014827;28;20116;-78
2022/05/03 10:31:53;;;;;;;3.63;2.40;;;18.10;99.90;;;;;;5013720;28;20037;-78
2022/05/03 10:34:41;;;;;;;9.48;7.20;;;18.20;99.90;;;;;;5028738;28;20052;-78
2022/05/03 10:37:11;;;;;;;8.27;6.28;;;17.40;99.90;;;;;;5014947;28;20083;-79
2022/05/03 10:39:45;;;;;;;;;;;17.20;99.90;;;;;;5016138;28;20090;-78
2022/05/03 10:42:14;;;;;;;11.80;8.30;;;17.30;99.90;;;;;;5029979;28;19916;-78
2022/05/03 10:44:53;;;;;;;9.10;6.37;;;17.30;99.90;;;;;;5011327;28;20037;-78
2022/05/03 10:47:43;;;;;;;8.95;6.40;;;17.50;99.90;;;;;;5014530;28;20034;-78
2022/05/03 10:50:12;;;;;;;5.10;3.90;;;17.70;99.90;;;;;;5010874;28;20063;-78
2022/05/03 10:52:39;;;;;;;6.15;4.28;;;18.50;99.90;;;;;;5009918;28;20043;-78
2022/05/03 10:55:08;;;;;;;7.85;5.93;;;18.10;99.90;;;;;;5013929;28;20100;-78
2022/05/03 10:58:12;;;;;;;6.25;5.05;;;17.90;99.90;;;;;;5013328;28;20134;-78
2022/05/03 11:01:08;;;;;;;5.05;3.80;;;17.70;99.90;;;;;;4977350;28;20377;-77
2022/05/03 11:03:39;;;;;;;4.07;2.88;;;17.80;99.90;;;;;;5012341;28;20040;-78
2022/05/03 11:06:23;;;;;;;3.90;2.67;;;18.60;99.90;;;;;;5007020;28;20383;-79
2022/05/03 11:14:16;;;;;;;3.80;1.73;;;18.10;99.90;;;;;;5027098;28;20069;-79
2022/05/03 11:16:47;;;;;;;6.78;4.82;;;18.90;99.90;;;;;;5010975;28;20196;-78
2022/05/03 11:19:24;;;;;;;5.68;3.42;;;18.00;99.90;;;;;;4996310;28;20138;-78
2022/05/03 11:21:50;;;;;;;5.30;3.15;;;17.10;99.90;;;;;;5010419;28;20037;-78
2022/05/03 11:24:30;;;;;;;3.22;2.58;;;17.00;99.90;;;;;;5007029;28;20053;-78
2022/05/03 11:27:08;;;;;;;3.55;1.10;;;17.70;99.90;;;;;;5008458;28;20116;-78
2022/05/03 11:29:36;;;;;;;3.25;1.02;;;18.70;99.90;;;;;;4997958;28;20033;-78
2022/05/03 11:32:06;;;;;;;3.20;1.80;;;18.90;99.90;;;;;;5012341;28;20045;-79
2022/05/03 11:34:32;;;;;;;3.55;1.50;;;19.10;99.90;;;;;;4996695;28;20035;-79
2022/05/03 11:36:58;;;;;;;2.80;1.55;;;19.60;99.90;;;;;;5011603;28;20041;-78
2022/05/03 11:39:25;;;;;;;3.75;2.15;;;18.80;99.90;;;;;;5028649;28;20492;-78
2022/05/03 11:41:51;;;;;;;2.85;0.80;;;17.70;99.90;;;;;;5010340;28;20048;-79
2022/05/03 11:44:17;;;;;;;1.88;0.88;;;17.80;99.90;;;;;;5013144;28;20065;-78
2022/05/03 11:46:44;;;;;;;1.73;0.70;;;18.40;99.90;;;;;;5012330;28;20029;-79
2022/05/03 11:49:11;;;;;;;3.45;1.80;;;18.70;99.90;;;;;;5011917;28;20113;-78
2022/05/03 11:57:30;;;;;;;2.88;1.98;;;17.10;99.90;;;;;;5020944;28;20168;-78
2022/05/03 11:59:58;;;;;;;2.92;0.90;;;17.60;99.90;;;;;;4986807;28;20064;-78
2022/05/03 12:02:35;;;;;;;2.97;1.70;;;18.00;99.90;;;;;;4971734;28;20451;-78
2022/05/03 12:05:12;;;;;;;4.22;2.50;;;18.50;99.90;;;;;;5013572;28;20038;-78
2022/05/03 12:07:42;;;;;;;4.90;4.22;;;18.70;99.90;;;;;;5013468;28;20109;-78
2022/05/03 12:10:27;;;;;;;5.93;3.42;;;18.30;99.90;;;;;;5013157;28;20036;-78
2022/05/03 12:13:08;;;;;;;3.58;3.17;;;18.00;99.90;;;;;;5012253;28;20045;-78
2022/05/03 12:15:42;;;;;;;4.47;3.05;;;18.00;99.90;;;;;;5014333;28;20121;-77
2022/05/03 12:18:09;;;;;;;6.55;4.43;;;18.30;99.90;;;;;;4999791;28;20435;-78
2022/05/03 12:20:42;;;;;;;4.22;3.13;;;18.00;99.90;;;;;;5016731;28;20048;-78
2022/05/03 12:23:20;;;;;;;5.60;3.60;;;18.10;99.90;;;;;;5015696;28;20087;-78
2022/05/03 12:25:51;;;;;;;5.03;3.53;;;17.70;99.90;;;;;;5000287;28;20057;-77
2022/05/03 12:28:17;;;;;;;5.30;3.30;;;17.50;99.90;;;;;;5017034;28;20037;-77
2022/05/03 12:30:43;;;;;;;3.72;1.55;;;17.80;99.90;;;;;;5030966;28;20619;-78
2022/05/03 12:33:14;;;;;;;4.35;3.40;;;17.70;99.90;;;;;;5015329;28;20103;-78
2022/05/03 12:35:42;;;;;;;4.20;2.38;;;17.60;99.90;;;;;;4994683;28;20060;-78
2022/05/03 12:38:09;;;;;;;3.67;2.47;;;17.60;99.90;;;;;;5013981;28;20125;-78
2022/05/03 12:40:42;;;;;;;4.20;2.78;;;17.40;99.90;;;;;;4998905;28;20029;-78
2022/05/03 12:43:11;;;;;;;5.13;3.22;;;17.10;99.90;;;;;;5014701;28;20041;-78
2022/05/03 12:45:39;;;;;;;4.55;3.50;;;16.90;99.90;;;;;;5014969;28;20021;-78
2022/05/03 12:48:06;;;;;;;8.30;5.18;;;17.00;99.90;;;;;;5013975;28;20033;-78
2022/05/03 12:50:32;;;;;;;6.25;4.22;;;16.70;99.90;;;;;;5031157;28;20163;-78
2022/05/03 12:52:57;;;;;;;4.60;3.17;;;16.80;99.90;;;;;;5013194;28;20033;-77
2022/05/03 12:55:24;;;;;;;5.85;4.10;;;16.90;99.90;;;;;;5015671;28;20075;-77
2022/05/03 13:00:36;;;;;;;4.38;2.47;;;17.20;99.90;;;;;;4973330;28;20061;-79
2022/05/03 13:03:03;;;;;;;2.83;1.20;;;17.30;99.90;;;;;;4998113;28;20041;-78
2022/05/03 13:05:29;;;;;;;3.75;1.80;;;17.50;99.90;;;;;;5013737;28;20039;-78
2022/05/03 13:07:55;;;;;;;5.40;2.90;;;17.30;99.90;;;;;;5014777;28;20052;-77
2022/05/03 13:10:20;;;;;;;3.20;1.65;;;17.20;99.90;;;;;;5010639;28;21668;-77
2022/05/03 13:12:48;;;;;;;5.30;3.25;;;17.30;99.90;;;;;;5014924;28;20041;-78
2022/05/03 13:15:13;;;;;;;5.88;3.80;;;17.00;99.90;;;;;;5010809;28;20466;-78
2022/05/03 13:17:39;;;;;;;5.53;3.28;;;16.70;99.90;;;;;;5014971;28;20350;-78
2022/05/03 13:20:06;;;;;;;3.55;2.22;;;16.60;99.90;;;;;;5014627;28;20038;-77
2022/05/03 13:22:32;;;;;;;4.15;2.65;;;16.90;99.90;;;;;;4999526;28;20033;-78
2022/05/03 13:24:58;;;;;;;5.22;2.33;;;16.80;99.90;;;;;;5000164;28;20040;-77
2022/05/03 13:27:23;;;;;;;4.13;2.78;;;16.50;99.90;;;;;;5015184;28;20501;-77
2022/05/03 13:29:49;;;;;;;4.68;2.40;;;16.30;99.90;;;;;;5030394;28;20038;-78
2022/05/03 13:32:15;;;;;;;5.13;2.95;;;16.20;99.90;;;;;;4999263;28;20657;-77
2022/05/03 13:34:40;;;;;;;4.57;2.67;;;16.20;99.90;;;;;;5022015;28;20029;-77
2022/05/03 13:42:34;;;;;;;11.80;8.52;;;15.90;99.90;;;;;;5015334;28;20552;-77
2022/05/03 13:45:00;;;;;;;12.70;9.40;;;15.70;99.90;;;;;;5016376;28;20037;-77
2022/05/03 13:47:25;;;;;;;21.27;14.10;;;15.70;99.90;;;;;;4999561;28;20029;-78
2022/05/03 13:49:51;;;;;;;31.33;18.00;;;15.40;99.90;;;;;;5013754;28;20040;-77
2022/05/03 13:52:18;;;;;;;28.45;17.13;;;15.00;99.90;;;;;;5015467;28;20921;-78
2022/05/03 13:54:44;;;;;;;29.95;17.52;;;15.00;99.90;;;;;;5011181;28;20041;-77
2022/05/03 13:57:09;;;;;;;27.50;16.55;;;14.80;99.90;;;;;;5013172;28;20050;-77